Time;durP1;ratioP1;P1;durP2;ratioP2;P2;SDS_P1;SDS_P2;PMS_P1;PMS_P2;Temp;Humidity;BMP_temperature;BMP_pressure;BME280_temperature;BME280_humidity;BME280_pressure;Samples;Min_cycle;Max_cycle;Signal;HPM_P1;HPM_P2
2022/02/06 00:02:03;;;;;;;18.35;7.90;;;;;;;;;;5095734;28;20099;-35
2022/02/06 00:04:29;;;;;;;12.85;7.03;;;;;;;;;;5094339;28;20118;-35
2022/02/06 00:06:54;;;;;;;15.25;7.05;;;;;;;;;;5095755;28;20023;-35
2022/02/06 00:09:19;;;;;;;18.10;7.28;;;;;;;;;;5093918;28;20032;-35
2022/02/06 00:11:44;;;;;;;18.35;7.32;;;;;;;;;;5095659;28;20031;-36
2022/02/06 00:14:10;;;;;;;14.63;7.00;;;;;;;;;;5095482;28;20090;-35
2022/02/06 00:16:36;;;;;;;11.80;6.05;;;;;;;;;;5095382;28;20016;-35
2022/02/06 00:19:01;;;;;;;12.70;6.28;;;;;;;;;;5095796;28;20447;-35
2022/02/06 00:21:29;;;;;;;12.95;6.53;;;;;;;;;;5093983;28;20020;-35
2022/02/06 00:23:55;;;;;;;17.65;6.60;;;;;;;;;;5095589;28;20044;-35
2022/02/06 00:26:53;;;;;;;15.68;6.30;;;;;;;;;;5095169;28;20024;-35
2022/02/06 00:29:22;;;;;;;15.77;6.63;;;;;;;;;;5094911;28;20032;-35
2022/02/06 00:32:01;;;;;;;17.98;7.00;;;;;;;;;;5095435;28;20359;-35
2022/02/06 00:34:45;;;;;;;12.15;5.90;;;;;;;;;;5093819;28;20031;-40
2022/02/06 00:39:58;;;;;;;11.00;5.60;;;;;;;;;;5095105;28;20169;-35
2022/02/06 00:42:23;;;;;;;19.40;6.85;;;;;;;;;;5093532;28;20057;-35
2022/02/06 00:44:48;;;;;;;18.15;7.10;;;;;;;;;;5093482;28;20023;-35
2022/02/06 00:47:14;;;;;;;18.05;6.38;;;;;;;;;;5095062;28;20451;-35
2022/02/06 00:49:41;;;;;;;12.95;6.40;;;;;;;;;;5093697;28;20016;-35
2022/02/06 00:52:15;;;;;;;14.32;6.20;;;;;;;;;;5094978;28;20065;-35
2022/02/06 00:54:41;;;;;;;17.88;6.70;;;;;;;;;;5094525;28;20024;-35
2022/02/06 00:57:06;;;;;;;13.70;6.32;;;;;;;;;;5094851;28;20359;-35
2022/02/06 00:59:32;;;;;;;18.13;6.93;;;;;;;;;;5094662;28;20082;-35
2022/02/06 01:01:57;;;;;;;17.35;7.32;;;;;;;;;;5094770;28;20024;-35
2022/02/06 01:04:23;;;;;;;22.90;9.27;;;;;;;;;;5093556;28;20455;-36
2022/02/06 01:06:48;;;;;;;24.58;8.32;;;;;;;;;;5094653;28;20023;-35
2022/02/06 01:09:15;;;;;;;18.92;8.55;;;;;;;;;;5093575;28;20024;-35
2022/02/06 01:11:40;;;;;;;18.65;8.13;;;;;;;;;;5093982;28;20063;-36
2022/02/06 01:16:39;;;;;;;14.20;7.10;;;;;;;;;;5093741;28;20095;-36
2022/02/06 01:19:10;;;;;;;18.17;7.68;;;;;;;;;;5094409;28;20035;-35
2022/02/06 01:21:48;;;;;;;14.52;7.22;;;;;;;;;;5093108;28;20028;-35
2022/02/06 01:24:19;;;;;;;21.10;7.97;;;;;;;;;;5094565;28;20054;-35
2022/02/06 01:26:56;;;;;;;18.85;7.78;;;;;;;;;;5094018;28;20474;-36
2022/02/06 01:29:42;;;;;;;16.65;7.32;;;;;;;;;;5094394;28;20371;-35
2022/02/06 01:32:13;;;;;;;16.25;7.78;;;;;;;;;;5093868;28;20467;-35
2022/02/06 01:34:47;;;;;;;16.30;6.53;;;;;;;;;;5092545;28;20051;-35
2022/02/06 01:42:28;;;;;;;22.33;7.50;;;;;;;;;;5094234;28;20451;-35
2022/02/06 02:03:28;;;;;;;10.75;5.78;;;;;;;;;;5093767;28;20016;-35
2022/02/06 02:48:10;;;;;;;10.90;4.40;;;;;;;;;;5092897;28;20034;-35
2022/02/06 02:50:39;;;;;;;13.77;6.32;;;;;;;;;;5092740;28;20109;-35
2022/02/06 03:00:47;;;;;;;11.57;5.72;;;;;;;;;;5092274;28;20466;-35
2022/02/06 03:03:19;;;;;;;13.52;5.60;;;;;;;;;;5090991;28;20066;-35
2022/02/06 03:05:47;;;;;;;12.07;5.93;;;;;;;;;;5091560;28;20024;-37
2022/02/06 03:08:12;;;;;;;17.90;6.90;;;;;;;;;;5092488;28;20024;-35
2022/02/06 03:10:38;;;;;;;12.75;6.10;;;;;;;;;;5091325;28;20031;-35
2022/02/06 03:13:07;;;;;;;15.95;5.90;;;;;;;;;;5093130;28;20451;-35
2022/02/06 03:15:46;;;;;;;;;;;;;;;;;;5093352;28;20101;-37
2022/02/06 03:18:23;;;;;;;11.50;5.25;;;;;;;;;;5091862;28;19912;-35
2022/02/06 03:20:50;;;;;;;12.75;5.55;;;;;;;;;;5091795;28;20020;-35
2022/02/06 03:23:15;;;;;;;13.48;4.95;;;;;;;;;;5093109;28;20028;-35
2022/02/06 03:26:14;;;;;;;9.73;5.10;;;;;;;;;;5093046;28;20024;-35
2022/02/06 03:28:33;;;;;;;7.95;4.78;;;;;;;;;;5089859;28;20547;-35
2022/02/06 03:30:58;;;;;;;11.27;4.40;;;;;;;;;;5093111;28;20055;-35
2022/02/06 03:33:23;;;;;;;10.30;4.93;;;;;;;;;;5092803;28;20024;-35
2022/02/06 03:35:49;;;;;;;11.98;5.13;;;;;;;;;;5091708;28;20052;-35
2022/02/06 03:38:14;;;;;;;8.73;5.15;;;;;;;;;;5092873;28;20128;-35
2022/02/06 03:40:47;;;;;;;11.15;5.05;;;;;;;;;;5092620;28;20028;-35
2022/02/06 03:43:18;;;;;;;7.72;4.60;;;;;;;;;;5091617;28;20463;-39
2022/02/06 03:45:49;;;;;;;11.57;4.75;;;;;;;;;;5093215;28;20047;-35
2022/02/06 03:49:03;;;;;;;14.27;4.55;;;;;;;;;;5092612;28;20445;-35
2022/02/06 03:51:06;;;;;;;11.32;5.00;;;;;;;;;;5084114;28;20090;-35
2022/02/06 03:53:31;;;;;;;8.00;4.25;;;;;;;;;;5092933;28;20028;-35
2022/02/06 03:55:59;;;;;;;8.75;4.45;;;;;;;;;;5091584;28;20031;-35
2022/02/06 03:58:24;;;;;;;10.45;5.35;;;;;;;;;;5091415;28;20031;-35
2022/02/06 04:00:49;;;;;;;11.68;6.03;;;;;;;;;;5092703;28;20025;-35
2022/02/06 04:03:15;;;;;;;7.15;4.65;;;;;;;;;;5092784;28;20028;-35
2022/02/06 04:05:45;;;;;;;10.57;4.40;;;;;;;;;;5091348;28;20103;-36
2022/02/06 04:08:14;;;;;;;7.72;4.63;;;;;;;;;;5093052;28;20107;-35
2022/02/06 04:10:44;;;;;;;12.23;5.28;;;;;;;;;;5092597;28;20498;-35
2022/02/06 04:13:16;;;;;;;15.00;5.55;;;;;;;;;;5092538;28;20029;-35
2022/02/06 04:15:42;;;;;;;9.85;5.28;;;;;;;;;;5092516;28;20016;-35
2022/02/06 04:18:13;;;;;;;10.48;5.32;;;;;;;;;;5092312;28;20119;-37
2022/02/06 04:20:39;;;;;;;16.42;5.93;;;;;;;;;;5093590;28;20122;-35
2022/02/06 04:23:05;;;;;;;12.90;5.43;;;;;;;;;;5096346;28;20528;-35
2022/02/06 04:25:30;;;;;;;11.73;5.15;;;;;;;;;;5096520;28;20368;-34
2022/02/06 04:27:55;;;;;;;10.60;5.10;;;;;;;;;;5094921;28;20020;-34
2022/02/06 04:30:20;;;;;;;9.25;5.00;;;;;;;;;;5094670;28;20051;-34
2022/02/06 04:32:46;;;;;;;13.85;7.80;;;;;;;;;;5095903;28;20020;-35
2022/02/06 04:35:16;;;;;;;18.63;8.20;;;;;;;;;;5094528;28;20103;-35
2022/02/06 04:37:57;;;;;;;41.08;15.15;;;;;;;;;;5095924;28;20020;-35
2022/02/06 04:40:43;;;;;;;38.13;13.23;;;;;;;;;;5095872;28;20040;-35
2022/02/06 04:43:34;;;;;;;21.15;8.32;;;;;;;;;;5095908;28;20387;-35
2022/02/06 04:51:59;;;;;;;10.00;5.65;;;;;;;;;;5095834;28;20501;-35
2022/02/06 05:19:08;;;;;;;13.93;5.60;;;;;;;;;;5095044;28;20046;-35
2022/02/06 05:24:21;;;;;;;15.65;5.80;;;;;;;;;;5095553;28;20463;-35
2022/02/06 05:26:52;;;;;;;11.82;5.35;;;;;;;;;;5094716;28;20033;-35
2022/02/06 05:29:27;;;;;;;15.02;6.10;;;;;;;;;;5093517;28;20440;-35
2022/02/06 05:34:18;;;;;;;15.50;6.47;;;;;;;;;;5094905;28;20471;-35
2022/02/06 05:36:43;;;;;;;11.30;6.22;;;;;;;;;;5094786;28;20101;-35
2022/02/06 05:39:09;;;;;;;13.32;6.00;;;;;;;;;;5094476;28;20094;-36
2022/02/06 05:41:34;;;;;;;15.00;6.63;;;;;;;;;;5094781;28;20024;-35
2022/02/06 05:43:59;;;;;;;14.48;5.75;;;;;;;;;;5093095;28;20012;-35
2022/02/06 05:46:25;;;;;;;10.98;5.70;;;;;;;;;;5093201;28;20016;-35
2022/02/06 05:48:50;;;;;;;15.32;6.03;;;;;;;;;;5094653;28;20031;-35
2022/02/06 05:51:16;;;;;;;12.00;5.93;;;;;;;;;;5094534;28;20020;-35
2022/02/06 05:53:41;;;;;;;11.02;5.53;;;;;;;;;;5094444;28;20027;-35
2022/02/06 05:56:06;;;;;;;17.98;6.72;;;;;;;;;;5094424;28;20016;-35
2022/02/06 05:58:32;;;;;;;10.68;5.28;;;;;;;;;;5092896;28;20098;-36
2022/02/06 06:00:57;;;;;;;15.95;6.53;;;;;;;;;;5094083;28;20465;-35
2022/02/06 06:03:22;;;;;;;13.02;6.10;;;;;;;;;;5093026;28;20493;-35
2022/02/06 06:05:48;;;;;;;16.23;5.70;;;;;;;;;;5094355;28;20027;-35
2022/02/06 06:08:13;;;;;;;17.05;6.47;;;;;;;;;;5092989;28;20027;-35
2022/02/06 06:10:39;;;;;;;12.80;5.35;;;;;;;;;;5094188;28;20024;-35
2022/02/06 06:13:04;;;;;;;19.25;6.72;;;;;;;;;;5094117;28;20451;-35
2022/02/06 06:15:30;;;;;;;12.48;6.20;;;;;;;;;;5092768;28;20124;-35
2022/02/06 06:17:56;;;;;;;11.38;5.70;;;;;;;;;;5092873;28;20057;-35
2022/02/06 06:20:24;;;;;;;19.48;6.13;;;;;;;;;;5094097;28;20058;-35
2022/02/06 06:22:52;;;;;;;14.88;6.55;;;;;;;;;;5092848;28;20055;-35
2022/02/06 06:25:18;;;;;;;17.15;6.70;;;;;;;;;;5094417;28;20024;-35
2022/02/06 06:27:43;;;;;;;18.20;6.93;;;;;;;;;;5092643;28;20054;-35
2022/02/06 06:30:09;;;;;;;12.75;6.35;;;;;;;;;;5093836;28;20055;-35
2022/02/06 06:32:34;;;;;;;18.42;6.55;;;;;;;;;;5092562;28;20419;-35
2022/02/06 06:35:02;;;;;;;21.33;8.40;;;;;;;;;;5093866;28;20094;-35
2022/02/06 06:37:28;;;;;;;15.43;7.72;;;;;;;;;;5093477;28;20023;-35
2022/02/06 06:39:53;;;;;;;15.32;7.60;;;;;;;;;;5093622;28;20028;-35
2022/02/06 06:42:18;;;;;;;18.88;8.25;;;;;;;;;;5093410;28;20387;-35
2022/02/06 06:44:44;;;;;;;14.40;7.22;;;;;;;;;;5091803;28;20026;-35
2022/02/06 06:47:09;;;;;;;17.67;8.85;;;;;;;;;;5093716;28;20154;-35
2022/02/06 06:49:35;;;;;;;15.55;7.57;;;;;;;;;;5093561;28;20386;-35
2022/02/06 06:52:01;;;;;;;16.45;6.75;;;;;;;;;;5093879;28;20060;-35
2022/02/06 06:54:35;;;;;;;17.98;6.97;;;;;;;;;;5093432;28;20017;-35
2022/02/06 06:57:13;;;;;;;16.25;7.70;;;;;;;;;;5092101;28;20020;-35
2022/02/06 07:04:41;;;;;;;17.40;8.40;;;;;;;;;;5093341;28;20063;-35
2022/02/06 07:07:07;;;;;;;22.67;9.80;;;;;;;;;;5093222;28;20020;-35
2022/02/06 07:09:32;;;;;;;16.67;7.85;;;;;;;;;;5093124;28;20059;-35
2022/02/06 07:11:57;;;;;;;20.17;7.70;;;;;;;;;;5092993;28;20031;-35
2022/02/06 07:14:22;;;;;;;13.52;7.25;;;;;;;;;;5093277;28;20031;-35
2022/02/06 07:16:48;;;;;;;20.35;7.82;;;;;;;;;;5093194;28;20045;-35
2022/02/06 07:19:13;;;;;;;20.02;7.00;;;;;;;;;;5093375;28;20032;-34
2022/02/06 07:21:39;;;;;;;15.27;7.18;;;;;;;;;;5093070;28;20016;-35
2022/02/06 07:24:05;;;;;;;15.70;6.82;;;;;;;;;;5092957;28;20020;-35
2022/02/06 07:26:30;;;;;;;18.70;7.68;;;;;;;;;;5092853;28;20032;-34
2022/02/06 07:28:59;;;;;;;16.88;8.00;;;;;;;;;;5092804;28;20019;-35
2022/02/06 07:31:24;;;;;;;12.98;7.20;;;;;;;;;;5093181;28;20031;-35
2022/02/06 07:33:50;;;;;;;15.50;7.45;;;;;;;;;;5091701;28;20024;-35
2022/02/06 07:36:17;;;;;;;18.60;6.68;;;;;;;;;;5093255;28;20046;-35
2022/02/06 07:38:43;;;;;;;22.80;9.77;;;;;;;;;;5092830;28;20044;-35
2022/02/06 07:41:08;;;;;;;20.85;9.43;;;;;;;;;;5091277;28;20032;-35
2022/02/06 07:43:34;;;;;;;16.88;7.50;;;;;;;;;;5091672;28;20044;-35
2022/02/06 07:46:00;;;;;;;20.60;7.50;;;;;;;;;;5092679;28;20081;-35
2022/02/06 07:48:25;;;;;;;16.25;7.78;;;;;;;;;;5091680;28;20020;-35
2022/02/06 07:50:50;;;;;;;18.35;7.70;;;;;;;;;;5091489;28;20023;-35
2022/02/06 07:53:16;;;;;;;22.83;9.38;;;;;;;;;;5091384;28;20020;-35
2022/02/06 07:55:41;;;;;;;24.63;8.25;;;;;;;;;;5093892;28;20027;-37
2022/02/06 07:58:06;;;;;;;12.82;6.22;;;;;;;;;;5096847;28;20028;-35
2022/02/06 08:00:32;;;;;;;14.88;5.22;;;;;;;;;;5095192;28;20071;-35
2022/02/06 08:02:57;;;;;;;10.73;5.40;;;;;;;;;;5096487;28;20157;-35
2022/02/06 08:05:24;;;;;;;9.93;4.45;;;;;;;;;;5096603;28;20016;-34
2022/02/06 08:07:50;;;;;;;11.80;5.30;;;;;;;;;;5096532;28;20019;-35
2022/02/06 08:10:16;;;;;;;15.93;5.35;;;;;;;;;;5096457;28;20013;-37
2022/02/06 08:12:51;;;;;;;13.43;5.10;;;;;;;;;;5095328;28;20103;-35
2022/02/06 08:15:17;;;;;;;8.48;4.93;;;;;;;;;;5096375;28;20103;-35
2022/02/06 08:17:42;;;;;;;10.27;4.80;;;;;;;;;;5095211;28;20112;-35
2022/02/06 08:20:12;;;;;;;19.42;5.78;;;;;;;;;;5096331;28;20040;-35
2022/02/06 08:22:38;;;;;;;31.80;10.10;;;;;;;;;;5096227;28;20113;-35
2022/02/06 08:25:04;;;;;;;26.08;9.13;;;;;;;;;;5095964;28;20145;-35
2022/02/06 08:27:29;;;;;;;23.38;7.60;;;;;;;;;;5096630;28;20020;-35
2022/02/06 08:29:55;;;;;;;19.40;6.57;;;;;;;;;;5094888;28;20097;-34
2022/02/06 08:32:22;;;;;;;10.80;5.18;;;;;;;;;;5096623;28;20362;-34
2022/02/06 08:34:48;;;;;;;15.27;6.00;;;;;;;;;;5096025;28;20024;-34
2022/02/06 08:37:13;;;;;;;13.55;5.93;;;;;;;;;;5095916;28;20020;-34
2022/02/06 08:39:40;;;;;;;23.10;9.20;;;;;;;;;;5095759;28;20131;-34
2022/02/06 08:42:06;;;;;;;12.75;4.82;;;;;;;;;;5094792;28;20027;-34
2022/02/06 08:44:32;;;;;;;13.65;5.00;;;;;;;;;;5095979;28;20016;-34
2022/02/06 08:46:57;;;;;;;7.97;3.97;;;;;;;;;;5094543;28;20069;-34
2022/02/06 08:49:23;;;;;;;11.80;4.45;;;;;;;;;;5095813;28;20019;-34
2022/02/06 08:51:49;;;;;;;10.35;3.72;;;;;;;;;;5094475;28;20048;-34
2022/02/06 08:54:14;;;;;;;8.10;3.10;;;;;;;;;;5095492;28;20020;-34
2022/02/06 08:56:40;;;;;;;12.73;3.63;;;;;;;;;;5094388;28;20020;-34
2022/02/06 08:59:10;;;;;;;10.07;3.42;;;;;;;;;;5095854;28;20520;-34
2022/02/06 09:01:36;;;;;;;9.00;3.40;;;;;;;;;;5095676;28;20044;-34
2022/02/06 09:04:01;;;;;;;5.80;3.13;;;;;;;;;;5095166;28;20109;-34
2022/02/06 09:06:26;;;;;;;7.07;3.30;;;;;;;;;;5093888;28;20027;-34
2022/02/06 09:08:56;;;;;;;6.40;3.50;;;;;;;;;;5095234;28;20024;-35
2022/02/06 09:11:23;;;;;;;8.77;3.90;;;;;;;;;;5095559;28;20123;-34
2022/02/06 09:13:48;;;;;;;6.15;2.90;;;;;;;;;;5095311;28;20101;-34
2022/02/06 09:16:13;;;;;;;7.05;2.92;;;;;;;;;;5094043;28;20024;-34
2022/02/06 09:18:38;;;;;;;12.90;4.88;;;;;;;;;;5093809;28;20020;-34
2022/02/06 09:21:04;;;;;;;8.48;3.58;;;;;;;;;;5095045;28;20382;-34
2022/02/06 09:23:29;;;;;;;9.25;3.13;;;;;;;;;;5095289;28;20035;-35
2022/02/06 09:25:54;;;;;;;8.95;3.65;;;;;;;;;;5095184;28;20024;-35
2022/02/06 09:28:20;;;;;;;8.30;3.40;;;;;;;;;;5095165;28;20028;-35
2022/02/06 09:30:45;;;;;;;10.55;2.67;;;;;;;;;;5094918;28;20016;-35
2022/02/06 09:35:37;;;;;;;6.40;3.30;;;;;;;;;;5094736;28;20374;-35
2022/02/06 09:38:03;;;;;;;9.52;3.65;;;;;;;;;;5093202;28;20281;-36
2022/02/06 09:40:32;;;;;;;8.52;3.58;;;;;;;;;;5093136;28;20036;-35
2022/02/06 09:42:58;;;;;;;9.65;3.67;;;;;;;;;;5094700;28;20035;-35
2022/02/06 09:45:25;;;;;;;18.30;6.22;;;;;;;;;;5094667;28;20020;-35
2022/02/06 09:47:53;;;;;;;13.73;4.70;;;;;;;;;;5094636;28;20028;-34
2022/02/06 09:50:18;;;;;;;40.88;12.73;;;;;;;;;;5093335;28;20024;-34
2022/02/06 09:52:44;;;;;;;24.15;7.25;;;;;;;;;;5094432;28;20012;-35
2022/02/06 09:55:16;;;;;;;20.33;4.10;;;;;;;;;;5094581;28;20066;-35
2022/02/06 09:57:53;;;;;;;11.13;4.00;;;;;;;;;;5094447;28;20031;-35
2022/02/06 10:00:19;;;;;;;15.60;5.95;;;;;;;;;;5093108;28;20039;-35
2022/02/06 10:02:47;;;;;;;5.97;2.00;;;;;;;;;;5094379;28;20020;-34
2022/02/06 10:05:13;;;;;;;14.23;4.20;;;;;;;;;;5094149;28;20037;-35
2022/02/06 10:07:42;;;;;;;10.48;2.78;;;;;;;;;;5094089;28;20161;-35
2022/02/06 10:10:09;;;;;;;19.13;7.15;;;;;;;;;;5094182;28;20459;-34
2022/02/06 10:12:36;;;;;;;16.75;3.85;;;;;;;;;;5094312;28;20394;-34
2022/02/06 10:15:02;;;;;;;7.93;1.65;;;;;;;;;;5094051;28;20026;-35
2022/02/06 10:17:27;;;;;;;27.55;7.20;;;;;;;;;;5093768;28;20115;-35
2022/02/06 10:19:54;;;;;;;42.83;15.55;;;;;;;;;;5093370;28;20111;-36
2022/02/06 10:22:22;;;;;;;6.25;3.15;;;;;;;;;;5093726;28;20435;-34
2022/02/06 10:24:56;;;;;;;15.25;6.35;;;;;;;;;;5094050;28;20024;-35
2022/02/06 10:27:41;;;;;;;18.27;6.22;;;;;;;;;;5092636;28;20541;-35
2022/02/06 10:30:19;;;;;;;5.95;1.60;;;;;;;;;;5092020;28;20016;-35
2022/02/06 10:32:45;;;;;;;10.23;4.38;;;;;;;;;;5092364;28;20073;-35
2022/02/06 10:35:10;;;;;;;7.80;3.45;;;;;;;;;;5093670;28;20039;-34
2022/02/06 10:37:36;;;;;;;11.48;1.95;;;;;;;;;;5092258;28;20047;-34
2022/02/06 10:40:05;;;;;;;6.13;2.22;;;;;;;;;;5092009;28;20067;-35
2022/02/06 10:42:31;;;;;;;3.38;1.55;;;;;;;;;;5093475;28;20473;-35
2022/02/06 10:45:15;;;;;;;14.80;5.72;;;;;;;;;;5092168;28;20024;-37
2022/02/06 10:47:41;;;;;;;9.82;3.70;;;;;;;;;;5093324;28;20463;-35
2022/02/06 10:50:10;;;;;;;210.02;14.45;;;;;;;;;;5093569;28;20020;-34
2022/02/06 10:52:36;;;;;;;15.82;5.07;;;;;;;;;;5093407;28;20034;-34
2022/02/06 10:55:02;;;;;;;8.30;3.78;;;;;;;;;;5093382;28;20666;-34
2022/02/06 10:57:28;;;;;;;9.80;2.60;;;;;;;;;;5093213;28;20388;-35
2022/02/06 10:59:54;;;;;;;15.40;3.60;;;;;;;;;;5093273;28;20089;-35
2022/02/06 11:02:26;;;;;;;16.25;5.50;;;;;;;;;;5093534;28;20099;-35
2022/02/06 11:05:19;;;;;;;29.70;12.18;;;;;;;;;;5093233;28;20028;-35
2022/02/06 11:07:52;;;;;;;12.52;4.30;;;;;;;;;;5093027;28;20024;-35
2022/02/06 11:10:17;;;;;;;6.40;3.55;;;;;;;;;;5092850;28;20032;-35
2022/02/06 11:12:48;;;;;;;27.50;10.25;;;;;;;;;;5093335;28;20141;-35
2022/02/06 11:15:23;;;;;;;11.13;2.55;;;;;;;;;;5092051;28;20180;-35
2022/02/06 11:18:00;;;;;;;11.13;5.07;;;;;;;;;;5093104;28;20024;-35
2022/02/06 11:20:27;;;;;;;12.52;2.72;;;;;;;;;;5091677;28;20036;-35
2022/02/06 11:22:53;;;;;;;16.05;4.72;;;;;;;;;;5092786;28;20028;-35
2022/02/06 11:25:18;;;;;;;14.32;3.85;;;;;;;;;;5093297;28;20020;-35
2022/02/06 11:27:44;;;;;;;18.83;5.20;;;;;;;;;;5091874;28;20055;-35
2022/02/06 11:30:09;;;;;;;20.30;6.20;;;;;;;;;;5093782;28;20030;-35
2022/02/06 11:32:36;;;;;;;11.70;4.18;;;;;;;;;;5097541;28;20028;-35
2022/02/06 11:35:08;;;;;;;15.50;2.33;;;;;;;;;;5097017;28;20020;-40
2022/02/06 11:46:05;;;;;;;13.18;3.35;;;;;;;;;;5096687;28;20032;-35
2022/02/06 11:48:31;;;;;;;6.22;3.13;;;;;;;;;;5097054;28;20451;-35
2022/02/06 11:50:57;;;;;;;12.95;3.60;;;;;;;;;;5096912;28;20023;-35
2022/02/06 11:53:26;;;;;;;11.18;4.72;;;;;;;;;;5096813;28;20099;-35
2022/02/06 11:55:53;;;;;;;9.05;2.88;;;;;;;;;;5078519;28;20062;-35
2022/02/06 11:58:34;;;;;;;18.55;3.20;;;;;;;;;;5096300;28;20067;-35
2022/02/06 12:01:05;;;;;;;14.68;4.75;;;;;;;;;;5096842;28;20390;-35
2022/02/06 12:03:49;;;;;;;13.70;4.63;;;;;;;;;;5096967;28;20101;-35
2022/02/06 12:06:14;;;;;;;9.23;2.97;;;;;;;;;;5096422;28;20374;-35
2022/02/06 12:08:44;;;;;;;8.57;3.30;;;;;;;;;;5096213;28;20024;-35
2022/02/06 12:11:11;;;;;;;16.15;3.45;;;;;;;;;;5078205;28;20107;-35
2022/02/06 12:13:37;;;;;;;8.05;2.50;;;;;;;;;;5078352;28;20120;-35
2022/02/06 12:16:04;;;;;;;3.67;2.25;;;;;;;;;;5096405;28;20020;-35
2022/02/06 12:18:40;;;;;;;11.35;3.22;;;;;;;;;;5078055;28;20458;-35
2022/02/06 12:21:12;;;;;;;5.35;2.75;;;;;;;;;;5096159;28;20032;-35
2022/02/06 12:23:59;;;;;;;8.45;2.72;;;;;;;;;;5095989;28;20031;-35
2022/02/06 12:26:28;;;;;;;3.38;2.17;;;;;;;;;;5096101;28;20379;-35
2022/02/06 12:28:54;;;;;;;6.47;2.95;;;;;;;;;;5096015;28;20414;-35
2022/02/06 12:31:29;;;;;;;7.57;2.63;;;;;;;;;;5095764;28;20482;-35
2022/02/06 12:34:14;;;;;;;4.65;2.03;;;;;;;;;;5095536;28;20024;-35
2022/02/06 12:37:22;;;;;;;5.28;2.00;;;;;;;;;;5053271;28;20028;-35
2022/02/06 12:39:38;;;;;;;8.27;2.10;;;;;;;;;;5092487;28;20559;-35
2022/02/06 12:42:08;;;;;;;5.90;2.30;;;;;;;;;;5093864;28;20020;-35
2022/02/06 12:44:34;;;;;;;4.03;2.13;;;;;;;;;;5096047;28;20019;-35
2022/02/06 12:47:00;;;;;;;3.88;2.05;;;;;;;;;;5095551;28;20017;-35
2022/02/06 12:49:29;;;;;;;12.18;3.25;;;;;;;;;;5095686;28;20024;-35
2022/02/06 12:51:55;;;;;;;3.72;2.13;;;;;;;;;;5095727;28;20110;-35
2022/02/06 12:54:21;;;;;;;5.68;2.80;;;;;;;;;;5094826;28;20062;-42
2022/02/06 12:56:46;;;;;;;3.78;2.15;;;;;;;;;;5094574;28;20048;-36
2022/02/06 12:59:19;;;;;;;6.78;2.58;;;;;;;;;;5095033;28;20077;-35
2022/02/06 13:01:47;;;;;;;8.75;3.05;;;;;;;;;;5092919;28;20012;-35
2022/02/06 13:04:16;;;;;;;4.45;2.70;;;;;;;;;;5095540;28;20020;-35
2022/02/06 13:06:42;;;;;;;;;;;;;;;;;;5095759;28;20042;-35
2022/02/06 13:09:15;;;;;;;6.05;2.38;;;;;;;;;;5095090;28;20363;-35
2022/02/06 13:11:52;;;;;;;48.88;4.80;;;;;;;;;;5093940;28;20023;-35
2022/02/06 13:14:32;;;;;;;4.65;3.35;;;;;;;;;;5093986;28;20031;-35
2022/02/06 13:17:13;;;;;;;7.90;2.38;;;;;;;;;;5095245;28;20028;-35
2022/02/06 13:25:29;;;;;;;9.48;2.70;;;;;;;;;;5095181;28;20028;-35
2022/02/06 13:38:37;;;;;;;7.15;2.95;;;;;;;;;;5094474;28;20040;-35
2022/02/06 13:41:10;;;;;;;6.18;2.40;;;;;;;;;;5094597;28;20478;-35
2022/02/06 13:43:41;;;;;;;9.85;3.25;;;;;;;;;;5093511;28;20024;-35
2022/02/06 13:46:14;;;;;;;9.65;3.00;;;;;;;;;;5093378;28;20020;-35
2022/02/06 13:48:39;;;;;;;7.25;3.90;;;;;;;;;;5093358;28;20021;-35
2022/02/06 13:51:07;;;;;;;5.32;3.05;;;;;;;;;;5093177;28;20024;-37
2022/02/06 13:53:35;;;;;;;8.32;3.75;;;;;;;;;;5093616;28;20378;-35
2022/02/06 13:56:03;;;;;;;6.05;3.17;;;;;;;;;;5093385;28;20368;-35
2022/02/06 13:58:29;;;;;;;7.72;3.97;;;;;;;;;;5093110;28;20028;-35
2022/02/06 14:01:08;;;;;;;5.28;3.22;;;;;;;;;;5093077;28;20494;-36
2022/02/06 14:03:43;;;;;;;10.82;3.95;;;;;;;;;;5092999;28;20482;-35
2022/02/06 14:06:09;;;;;;;6.72;3.50;;;;;;;;;;5094383;28;20059;-35
2022/02/06 14:08:36;;;;;;;10.82;4.47;;;;;;;;;;5093090;28;20451;-35
2022/02/06 14:11:07;;;;;;;10.48;4.25;;;;;;;;;;5094108;28;20024;-35
2022/02/06 14:13:32;;;;;;;10.30;4.07;;;;;;;;;;5094112;28;20021;-35
2022/02/06 14:16:01;;;;;;;11.02;5.15;;;;;;;;;;5094281;28;20016;-35
2022/02/06 14:18:27;;;;;;;8.07;3.50;;;;;;;;;;5093816;28;20033;-35
2022/02/06 14:20:58;;;;;;;6.57;3.40;;;;;;;;;;5094070;28;20032;-35
2022/02/06 14:23:24;;;;;;;7.22;4.15;;;;;;;;;;5094364;28;20024;-35
2022/02/06 14:25:49;;;;;;;10.52;4.47;;;;;;;;;;5092844;28;20016;-35
2022/02/06 14:28:16;;;;;;;8.85;4.65;;;;;;;;;;5092593;28;20431;-35
2022/02/06 14:30:43;;;;;;;10.13;4.20;;;;;;;;;;5093736;28;20028;-35
2022/02/06 14:33:22;;;;;;;9.40;4.70;;;;;;;;;;5093525;28;20020;-35
2022/02/06 14:35:52;;;;;;;11.87;5.23;;;;;;;;;;5094116;28;20025;-35
2022/02/06 14:38:22;;;;;;;11.32;5.00;;;;;;;;;;5093868;28;20364;-36
2022/02/06 14:41:07;;;;;;;7.70;4.85;;;;;;;;;;5092428;28;20064;-35
2022/02/06 14:43:35;;;;;;;8.68;4.80;;;;;;;;;;5093316;28;20040;-35
2022/02/06 14:46:01;;;;;;;9.30;4.68;;;;;;;;;;5093587;28;20103;-35
2022/02/06 14:48:27;;;;;;;8.48;5.10;;;;;;;;;;5093655;28;20024;-35
2022/02/06 14:50:53;;;;;;;11.25;4.43;;;;;;;;;;5093606;28;20024;-35
2022/02/06 14:53:20;;;;;;;10.48;6.38;;;;;;;;;;5093793;28;20028;-35
2022/02/06 14:55:45;;;;;;;12.40;4.38;;;;;;;;;;5092113;28;20115;-35
2022/02/06 14:58:11;;;;;;;8.13;4.65;;;;;;;;;;5093151;28;20446;-35
2022/02/06 15:00:38;;;;;;;8.98;5.13;;;;;;;;;;5093429;28;20060;-35
2022/02/06 15:03:04;;;;;;;11.48;5.05;;;;;;;;;;5093401;28;20031;-35
2022/02/06 15:05:29;;;;;;;9.93;5.30;;;;;;;;;;5093107;28;20020;-35
2022/02/06 15:07:55;;;;;;;12.32;7.13;;;;;;;;;;5091986;28;20364;-35
2022/02/06 15:10:20;;;;;;;10.20;4.97;;;;;;;;;;5093174;28;20016;-35
2022/02/06 15:12:46;;;;;;;8.93;4.75;;;;;;;;;;5092935;28;20099;-35
2022/02/06 15:15:12;;;;;;;8.63;5.10;;;;;;;;;;5092055;28;20444;-35
2022/02/06 15:17:38;;;;;;;17.33;5.35;;;;;;;;;;5091939;28;20028;-35
2022/02/06 15:20:03;;;;;;;15.20;6.43;;;;;;;;;;5093020;28;20380;-35
2022/02/06 15:22:29;;;;;;;11.35;5.60;;;;;;;;;;5091688;28;20488;-35
2022/02/06 15:24:54;;;;;;;13.02;5.38;;;;;;;;;;5093316;28;20016;-35
2022/02/06 15:27:19;;;;;;;11.00;5.70;;;;;;;;;;5092760;28;20025;-35
2022/02/06 15:29:44;;;;;;;18.25;7.22;;;;;;;;;;5091698;28;20028;-35
2022/02/06 15:32:10;;;;;;;18.48;7.20;;;;;;;;;;5093269;28;20020;-34
2022/02/06 15:34:35;;;;;;;15.85;7.60;;;;;;;;;;5093083;28;20047;-35
2022/02/06 15:37:03;;;;;;;16.40;7.25;;;;;;;;;;5091607;28;20023;-35
2022/02/06 15:39:36;;;;;;;13.57;6.95;;;;;;;;;;5091345;28;20055;-35
2022/02/06 15:42:03;;;;;;;14.77;6.80;;;;;;;;;;5092674;28;20039;-35
2022/02/06 15:44:29;;;;;;;16.70;8.20;;;;;;;;;;5091834;28;20035;-35
2022/02/06 15:46:54;;;;;;;17.80;7.57;;;;;;;;;;5092878;28;20020;-35
2022/02/06 15:49:20;;;;;;;17.08;7.55;;;;;;;;;;5091709;28;20183;-35
2022/02/06 15:51:45;;;;;;;14.68;7.47;;;;;;;;;;5092868;28;20442;-35
2022/02/06 15:54:11;;;;;;;23.13;11.07;;;;;;;;;;5092732;28;20016;-35
2022/02/06 15:56:36;;;;;;;22.77;11.70;;;;;;;;;;5092665;28;20024;-35
2022/02/06 15:59:02;;;;;;;24.08;10.43;;;;;;;;;;5091202;28;20028;-35
2022/02/06 16:01:27;;;;;;;34.00;8.88;;;;;;;;;;5093027;28;20020;-35
2022/02/06 16:03:53;;;;;;;18.92;7.97;;;;;;;;;;5091423;28;20012;-35
2022/02/06 16:06:18;;;;;;;22.90;7.05;;;;;;;;;;5092705;28;20405;-35
2022/02/06 16:08:43;;;;;;;12.45;6.75;;;;;;;;;;5092651;28;20048;-35
2022/02/06 16:11:09;;;;;;;15.52;7.75;;;;;;;;;;5091053;28;20482;-35
2022/02/06 16:13:34;;;;;;;15.07;6.75;;;;;;;;;;5092449;28;20027;-35
2022/02/06 16:16:00;;;;;;;19.98;7.13;;;;;;;;;;5091681;28;20459;-35
2022/02/06 16:18:25;;;;;;;16.45;8.23;;;;;;;;;;5096528;28;20569;-35
2022/02/06 16:20:52;;;;;;;23.15;9.48;;;;;;;;;;5096392;28;20043;-35
2022/02/06 16:23:17;;;;;;;24.40;11.07;;;;;;;;;;5096376;28;20024;-35
2022/02/06 16:25:43;;;;;;;30.85;14.88;;;;;;;;;;5096355;28;20050;-35
2022/02/06 16:28:08;;;;;;;57.55;22.45;;;;;;;;;;5094559;28;20024;-35
2022/02/06 16:30:33;;;;;;;66.88;26.15;;;;;;;;;;5095030;28;20027;-35
2022/02/06 16:32:59;;;;;;;77.00;26.58;;;;;;;;;;5096259;28;20028;-35
2022/02/06 16:35:24;;;;;;;71.50;27.23;;;;;;;;;;5096020;28;20413;-35
2022/02/06 16:37:49;;;;;;;52.72;22.42;;;;;;;;;;5094714;28;20116;-35
2022/02/06 16:40:15;;;;;;;65.75;24.83;;;;;;;;;;5096068;28;20040;-35
2022/02/06 16:42:42;;;;;;;37.58;14.93;;;;;;;;;;5095749;28;20455;-35
2022/02/06 16:45:08;;;;;;;48.15;16.52;;;;;;;;;;5095933;28;20077;-35
2022/02/06 16:47:33;;;;;;;34.53;15.13;;;;;;;;;;5094657;28;20020;-35
2022/02/06 16:49:58;;;;;;;23.45;11.02;;;;;;;;;;5094642;28;20130;-35
2022/02/06 16:52:24;;;;;;;16.92;9.57;;;;;;;;;;5094592;28;20416;-35
2022/02/06 16:54:49;;;;;;;17.13;9.35;;;;;;;;;;5095648;28;20478;-35
2022/02/06 16:57:14;;;;;;;19.38;8.40;;;;;;;;;;5095392;28;20024;-35
2022/02/06 16:59:40;;;;;;;27.15;9.55;;;;;;;;;;5094133;28;20032;-35
2022/02/06 17:02:05;;;;;;;19.15;9.73;;;;;;;;;;5095701;28;20016;-35
2022/02/06 17:04:30;;;;;;;18.23;8.68;;;;;;;;;;5095646;28;20012;-35
2022/02/06 17:06:56;;;;;;;17.35;8.55;;;;;;;;;;5095556;28;20466;-35